sensor_id;sensor_type;location;lat;lon;timestamp;pressure;altitude;pressure_sealevel;temperature;humidity
49723;BME280;43484;43.608;1.458;2023-06-19T00:01:40;99058.06;;;23.26;100.00
49723;BME280;43484;43.608;1.458;2023-06-19T00:04:06;99040.25;;;23.39;100.00
49723;BME280;43484;43.608;1.458;2023-06-19T00:06:33;99031.72;;;23.34;100.00
49723;BME280;43484;43.608;1.458;2023-06-19T00:09:00;99038.63;;;23.35;100.00
49723;BME280;43484;43.608;1.458;2023-06-19T00:11:26;99041.75;;;23.46;100.00
49723;BME280;43484;43.608;1.458;2023-06-19T00:13:53;99056.44;;;23.48;100.00
49723;BME280;43484;43.608;1.458;2023-06-19T00:16:20;99067.78;;;23.49;100.00
49723;BME280;43484;43.608;1.458;2023-06-19T00:18:47;99072.72;;;23.56;100.00
49723;BME280;43484;43.608;1.458;2023-06-19T00:21:13;99089.56;;;23.48;100.00
49723;BME280;43484;43.608;1.458;2023-06-19T00:23:40;99136.72;;;23.19;100.00
49723;BME280;43484;43.608;1.458;2023-06-19T00:26:06;99138.00;;;23.33;100.00
49723;BME280;43484;43.608;1.458;2023-06-19T00:28:33;99152.06;;;23.31;100.00
49723;BME280;43484;43.608;1.458;2023-06-19T00:31:00;99193.13;;;23.27;100.00
49723;BME280;43484;43.608;1.458;2023-06-19T00:33:26;99206.19;;;23.27;100.00
49723;BME280;43484;43.608;1.458;2023-06-19T00:35:53;99226.13;;;23.30;100.00
49723;BME280;43484;43.608;1.458;2023-06-19T00:38:21;99246.81;;;23.37;100.00
49723;BME280;43484;43.608;1.458;2023-06-19T00:40:48;99231.34;;;23.30;100.00
49723;BME280;43484;43.608;1.458;2023-06-19T00:43:14;99234.84;;;23.30;100.00
49723;BME280;43484;43.608;1.458;2023-06-19T00:45:41;99266.34;;;23.24;100.00
49723;BME280;43484;43.608;1.458;2023-06-19T00:48:08;99301.06;;;23.31;100.00
49723;BME280;43484;43.608;1.458;2023-06-19T00:50:35;99303.75;;;23.26;100.00
49723;BME280;43484;43.608;1.458;2023-06-19T00:53:03;99299.41;;;23.27;100.00
49723;BME280;43484;43.608;1.458;2023-06-19T00:55:32;99309.34;;;23.14;100.00
49723;BME280;43484;43.608;1.458;2023-06-19T00:58:00;99322.19;;;23.22;100.00
49723;BME280;43484;43.608;1.458;2023-06-19T01:00:28;99307.84;;;23.06;100.00
49723;BME280;43484;43.608;1.458;2023-06-19T01:02:54;99293.34;;;22.96;100.00
49723;BME280;43484;43.608;1.458;2023-06-19T01:05:21;99294.16;;;22.98;100.00
49723;BME280;43484;43.608;1.458;2023-06-19T01:07:58;99271.03;;;22.84;100.00
49723;BME280;43484;43.608;1.458;2023-06-19T01:10:30;99235.28;;;22.86;100.00
49723;BME280;43484;43.608;1.458;2023-06-19T01:13:21;99186.63;;;22.55;100.00
49723;BME280;43484;43.608;1.458;2023-06-19T01:15:50;99125.53;;;22.60;100.00
49723;BME280;43484;43.608;1.458;2023-06-19T01:18:17;99124.00;;;22.82;100.00
49723;BME280;43484;43.608;1.458;2023-06-19T01:20:44;99143.75;;;22.89;100.00
49723;BME280;43484;43.608;1.458;2023-06-19T01:23:11;99132.91;;;22.75;100.00
49723;BME280;43484;43.608;1.458;2023-06-19T01:25:38;99111.88;;;22.80;100.00
49723;BME280;43484;43.608;1.458;2023-06-19T01:28:07;99088.72;;;22.68;100.00
49723;BME280;43484;43.608;1.458;2023-06-19T01:30:40;99063.91;;;22.55;100.00
49723;BME280;43484;43.608;1.458;2023-06-19T01:33:44;99059.19;;;22.66;100.00
49723;BME280;43484;43.608;1.458;2023-06-19T01:36:04;99057.34;;;22.69;100.00
49723;BME280;43484;43.608;1.458;2023-06-19T01:38:31;99036.06;;;22.55;100.00
49723;BME280;43484;43.608;1.458;2023-06-19T01:40:59;99022.09;;;22.56;100.00
49723;BME280;43484;43.608;1.458;2023-06-19T01:43:28;99031.91;;;22.48;100.00
49723;BME280;43484;43.608;1.458;2023-06-19T01:45:58;99033.53;;;22.52;100.00
49723;BME280;43484;43.608;1.458;2023-06-19T01:48:25;99029.38;;;22.45;100.00
49723;BME280;43484;43.608;1.458;2023-06-19T01:50:52;99021.31;;;22.53;100.00
49723;BME280;43484;43.608;1.458;2023-06-19T01:53:18;99013.69;;;22.47;100.00
49723;BME280;43484;43.608;1.458;2023-06-19T01:55:45;99026.56;;;22.51;100.00
49723;BME280;43484;43.608;1.458;2023-06-19T01:58:12;99022.31;;;22.49;100.00
49723;BME280;43484;43.608;1.458;2023-06-19T02:00:39;99014.16;;;22.31;100.00
49723;BME280;43484;43.608;1.458;2023-06-19T02:03:05;99011.69;;;22.27;100.00
49723;BME280;43484;43.608;1.458;2023-06-19T02:05:32;98996.25;;;22.19;100.00
49723;BME280;43484;43.608;1.458;2023-06-19T02:07:59;98964.34;;;22.11;100.00
49723;BME280;43484;43.608;1.458;2023-06-19T02:10:26;98974.44;;;22.22;100.00
49723;BME280;43484;43.608;1.458;2023-06-19T02:12:53;98983.09;;;22.22;100.00
49723;BME280;43484;43.608;1.458;2023-06-19T02:15:19;98997.72;;;22.28;100.00
49723;BME280;43484;43.608;1.458;2023-06-19T02:17:46;99009.41;;;22.16;100.00
49723;BME280;43484;43.608;1.458;2023-06-19T02:20:12;99001.31;;;22.24;100.00
49723;BME280;43484;43.608;1.458;2023-06-19T02:22:39;99004.28;;;22.13;100.00
49723;BME280;43484;43.608;1.458;2023-06-19T02:25:07;98989.41;;;22.17;100.00
49723;BME280;43484;43.608;1.458;2023-06-19T02:27:33;98994.97;;;22.05;100.00
49723;BME280;43484;43.608;1.458;2023-06-19T02:30:00;99005.72;;;21.94;100.00
49723;BME280;43484;43.608;1.458;2023-06-19T02:32:27;99015.44;;;21.89;100.00
49723;BME280;43484;43.608;1.458;2023-06-19T02:34:54;99014.44;;;21.93;100.00
49723;BME280;43484;43.608;1.458;2023-06-19T02:37:20;99017.47;;;21.80;100.00
49723;BME280;43484;43.608;1.458;2023-06-19T02:39:47;98999.00;;;21.86;100.00
49723;BME280;43484;43.608;1.458;2023-06-19T02:42:13;98994.06;;;21.75;100.00
49723;BME280;43484;43.608;1.458;2023-06-19T02:44:40;98996.88;;;21.69;100.00
49723;BME280;43484;43.608;1.458;2023-06-19T02:47:09;98999.16;;;21.81;100.00
49723;BME280;43484;43.608;1.458;2023-06-19T02:49:35;98994.78;;;21.51;100.00
49723;BME280;43484;43.608;1.458;2023-06-19T02:52:02;98980.16;;;21.76;100.00
49723;BME280;43484;43.608;1.458;2023-06-19T02:54:29;98974.16;;;21.73;100.00
49723;BME280;43484;43.608;1.458;2023-06-19T02:56:56;98967.41;;;21.66;100.00
49723;BME280;43484;43.608;1.458;2023-06-19T02:59:22;98953.13;;;21.50;100.00
49723;BME280;43484;43.608;1.458;2023-06-19T03:01:49;98929.66;;;21.50;100.00
49723;BME280;43484;43.608;1.458;2023-06-19T03:04:15;98911.44;;;21.50;100.00
49723;BME280;43484;43.608;1.458;2023-06-19T03:06:42;98906.38;;;21.44;100.00
49723;BME280;43484;43.608;1.458;2023-06-19T03:09:09;98898.31;;;21.53;100.00
49723;BME280;43484;43.608;1.458;2023-06-19T03:11:39;98898.31;;;21.53;100.00
49723;BME280;43484;43.608;1.458;2023-06-19T03:14:06;98904.94;;;21.63;100.00
49723;BME280;43484;43.608;1.458;2023-06-19T03:16:34;98915.06;;;21.73;100.00
49723;BME280;43484;43.608;1.458;2023-06-19T03:19:01;98930.91;;;21.66;100.00
49723;BME280;43484;43.608;1.458;2023-06-19T03:21:28;98936.00;;;21.70;100.00
49723;BME280;43484;43.608;1.458;2023-06-19T03:23:54;98930.00;;;21.68;100.00
49723;BME280;43484;43.608;1.458;2023-06-19T03:26:21;98943.81;;;21.70;100.00
49723;BME280;43484;43.608;1.458;2023-06-19T03:28:48;98936.09;;;21.67;100.00
49723;BME280;43484;43.608;1.458;2023-06-19T03:31:15;98926.47;;;21.69;100.00
49723;BME280;43484;43.608;1.458;2023-06-19T03:33:41;98957.00;;;21.66;100.00
49723;BME280;43484;43.608;1.458;2023-06-19T03:36:08;98976.97;;;21.67;100.00
49723;BME280;43484;43.608;1.458;2023-06-19T03:38:35;98969.72;;;21.78;100.00
49723;BME280;43484;43.608;1.458;2023-06-19T03:41:02;98976.97;;;21.67;100.00
49723;BME280;43484;43.608;1.458;2023-06-19T03:43:28;98970.69;;;21.72;100.00
49723;BME280;43484;43.608;1.458;2023-06-19T03:45:55;98973.53;;;21.65;100.00
49723;BME280;43484;43.608;1.458;2023-06-19T03:48:22;98962.53;;;21.54;100.00
49723;BME280;43484;43.608;1.458;2023-06-19T03:50:48;98951.97;;;21.60;100.00
49723;BME280;43484;43.608;1.458;2023-06-19T03:53:15;98934.69;;;21.56;100.00
49723;BME280;43484;43.608;1.458;2023-06-19T03:55:42;98921.75;;;21.53;100.00
49723;BME280;43484;43.608;1.458;2023-06-19T03:58:10;98928.72;;;21.52;100.00
49723;BME280;43484;43.608;1.458;2023-06-19T04:00:37;98929.06;;;21.40;100.00
49723;BME280;43484;43.608;1.458;2023-06-19T04:03:04;98923.59;;;21.49;100.00
49723;BME280;43484;43.608;1.458;2023-06-19T04:05:30;98930.06;;;21.36;100.00
49723;BME280;43484;43.608;1.458;2023-06-19T04:07:57;98921.00;;;21.49;100.00
49723;BME280;43484;43.608;1.458;2023-06-19T04:10:24;98932.00;;;21.59;100.00
49723;BME280;43484;43.608;1.458;2023-06-19T04:12:50;98943.53;;;21.50;100.00
49723;BME280;43484;43.608;1.458;2023-06-19T04:15:17;98942.59;;;21.53;100.00
49723;BME280;43484;43.608;1.458;2023-06-19T04:17:44;98947.63;;;21.59;100.00
49723;BME280;43484;43.608;1.458;2023-06-19T04:20:11;98946.66;;;21.63;100.00
49723;BME280;43484;43.608;1.458;2023-06-19T04:22:39;98958.63;;;21.70;100.00
49723;BME280;43484;43.608;1.458;2023-06-19T04:25:07;98985.53;;;21.70;100.00
49723;BME280;43484;43.608;1.458;2023-06-19T04:27:34;98984.06;;;21.62;100.00
49723;BME280;43484;43.608;1.458;2023-06-19T04:30:02;98990.72;;;21.72;100.00
49723;BME280;43484;43.608;1.458;2023-06-19T04:32:30;98992.31;;;21.76;100.00
49723;BME280;43484;43.608;1.458;2023-06-19T04:34:57;98997.69;;;21.71;100.00
49723;BME280;43484;43.608;1.458;2023-06-19T04:37:24;98995.78;;;21.78;100.00
49723;BME280;43484;43.608;1.458;2023-06-19T04:39:50;98999.41;;;21.71;100.00
49723;BME280;43484;43.608;1.458;2023-06-19T04:42:17;98996.69;;;21.77;100.00
49723;BME280;43484;43.608;1.458;2023-06-19T04:44:48;98994.81;;;21.82;100.00
49723;BME280;43484;43.608;1.458;2023-06-19T04:47:18;99005.25;;;21.80;100.00
49723;BME280;43484;43.608;1.458;2023-06-19T04:49:45;99012.97;;;21.85;100.00
49723;BME280;43484;43.608;1.458;2023-06-19T04:52:12;99026.34;;;21.71;100.00
49723;BME280;43484;43.608;1.458;2023-06-19T04:54:39;99035.03;;;21.72;100.00
49723;BME280;43484;43.608;1.458;2023-06-19T04:57:06;99028.06;;;21.72;100.00
49723;BME280;43484;43.608;1.458;2023-06-19T04:59:33;99046.34;;;21.71;100.00
49723;BME280;43484;43.608;1.458;2023-06-19T05:02:00;99046.31;;;21.72;100.00
49723;BME280;43484;43.608;1.458;2023-06-19T05:04:27;99047.00;;;21.79;100.00
49723;BME280;43484;43.608;1.458;2023-06-19T05:06:53;99053.63;;;21.92;100.00
49723;BME280;43484;43.608;1.458;2023-06-19T05:09:20;99067.81;;;21.82;100.00
49723;BME280;43484;43.608;1.458;2023-06-19T05:11:46;99061.78;;;21.80;100.00
49723;BME280;43484;43.608;1.458;2023-06-19T05:14:13;99063.56;;;21.78;100.00
49723;BME280;43484;43.608;1.458;2023-06-19T05:16:41;99066.09;;;21.81;100.00
49723;BME280;43484;43.608;1.458;2023-06-19T05:19:08;99077.63;;;21.71;100.00
49723;BME280;43484;43.608;1.458;2023-06-19T05:21:35;99069.91;;;21.68;100.00
49723;BME280;43484;43.608;1.458;2023-06-19T05:24:02;99066.25;;;21.75;100.00
49723;BME280;43484;43.608;1.458;2023-06-19T05:26:29;99064.66;;;21.69;100.00
49723;BME280;43484;43.608;1.458;2023-06-19T05:28:56;99048.13;;;21.69;100.00
49723;BME280;43484;43.608;1.458;2023-06-19T05:31:22;99029.69;;;21.76;100.00
49723;BME280;43484;43.608;1.458;2023-06-19T05:33:49;99039.63;;;21.94;100.00
49723;BME280;43484;43.608;1.458;2023-06-19T05:36:16;99054.06;;;22.06;100.00
49723;BME280;43484;43.608;1.458;2023-06-19T05:38:43;99064.28;;;22.13;100.00
49723;BME280;43484;43.608;1.458;2023-06-19T05:41:09;99092.06;;;22.14;100.00
49723;BME280;43484;43.608;1.458;2023-06-19T05:43:36;99093.31;;;22.32;100.00
49723;BME280;43484;43.608;1.458;2023-06-19T05:46:03;99099.56;;;22.56;100.00
49723;BME280;43484;43.608;1.458;2023-06-19T05:48:30;99110.63;;;22.64;100.00
49723;BME280;43484;43.608;1.458;2023-06-19T05:50:56;99126.59;;;22.82;100.00
49723;BME280;43484;43.608;1.458;2023-06-19T05:53:23;99150.56;;;22.95;100.00
49723;BME280;43484;43.608;1.458;2023-06-19T05:55:50;99181.53;;;23.07;100.00
49723;BME280;43484;43.608;1.458;2023-06-19T05:58:17;99215.56;;;23.05;100.00
49723;BME280;43484;43.608;1.458;2023-06-19T06:00:47;99220.78;;;23.05;100.00
49723;BME280;43484;43.608;1.458;2023-06-19T06:03:14;99220.63;;;23.10;100.00
49723;BME280;43484;43.608;1.458;2023-06-19T06:05:41;99218.88;;;23.10;100.00
49723;BME280;43484;43.608;1.458;2023-06-19T06:08:09;99229.13;;;23.16;100.00
49723;BME280;43484;43.608;1.458;2023-06-19T06:10:36;99232.78;;;23.11;100.00
49723;BME280;43484;43.608;1.458;2023-06-19T06:13:02;99221.00;;;22.98;100.00
49723;BME280;43484;43.608;1.458;2023-06-19T06:15:29;99216.91;;;22.89;100.00
49723;BME280;43484;43.608;1.458;2023-06-19T06:17:56;99212.34;;;22.96;100.00
49723;BME280;43484;43.608;1.458;2023-06-19T06:20:22;99216.53;;;23.01;100.00
49723;BME280;43484;43.608;1.458;2023-06-19T06:22:49;99221.56;;;23.09;100.00
49723;BME280;43484;43.608;1.458;2023-06-19T06:25:16;99225.91;;;23.08;100.00
49723;BME280;43484;43.608;1.458;2023-06-19T06:27:43;99225.75;;;23.13;100.00
49723;BME280;43484;43.608;1.458;2023-06-19T06:30:11;99224.72;;;23.18;100.00
49723;BME280;43484;43.608;1.458;2023-06-19T06:32:38;99227.72;;;23.06;100.00
49723;BME280;43484;43.608;1.458;2023-06-19T06:35:05;99223.41;;;23.05;100.00
49723;BME280;43484;43.608;1.458;2023-06-19T06:37:32;99239.81;;;23.38;100.00
49723;BME280;43484;43.608;1.458;2023-06-19T06:39:59;99251.03;;;23.41;100.00
49723;BME280;43484;43.608;1.458;2023-06-19T06:42:26;99254.56;;;23.40;100.00
49723;BME280;43484;43.608;1.458;2023-06-19T06:44:52;99257.16;;;23.40;100.00
49723;BME280;43484;43.608;1.458;2023-06-19T06:47:19;99259.88;;;23.37;100.00
49723;BME280;43484;43.608;1.458;2023-06-19T06:49:46;99271.22;;;23.36;100.00
49723;BME280;43484;43.608;1.458;2023-06-19T06:52:12;99279.88;;;23.38;100.00
49723;BME280;43484;43.608;1.458;2023-06-19T06:54:39;99281.53;;;23.42;100.00
49723;BME280;43484;43.608;1.458;2023-06-19T06:57:06;99292.63;;;23.49;100.00
49723;BME280;43484;43.608;1.458;2023-06-19T06:59:32;99298.91;;;23.43;100.00
49723;BME280;43484;43.608;1.458;2023-06-19T07:01:59;99308.31;;;23.49;100.00
49723;BME280;43484;43.608;1.458;2023-06-19T07:04:26;99318.03;;;23.45;100.00
49723;BME280;43484;43.608;1.458;2023-06-19T07:06:52;99329.34;;;23.44;100.00
49723;BME280;43484;43.608;1.458;2023-06-19T07:09:19;99342.44;;;23.44;100.00
49723;BME280;43484;43.608;1.458;2023-06-19T07:11:48;99347.81;;;23.40;100.00
49723;BME280;43484;43.608;1.458;2023-06-19T07:14:18;99358.22;;;23.41;100.00
49723;BME280;43484;43.608;1.458;2023-06-19T07:16:45;99370.75;;;23.30;100.00
49723;BME280;43484;43.608;1.458;2023-06-19T07:19:12;99367.19;;;23.33;100.00
49723;BME280;43484;43.608;1.458;2023-06-19T07:21:39;99384.78;;;23.26;100.00
49723;BME280;43484;43.608;1.458;2023-06-19T07:24:06;99369.44;;;23.16;100.00
49723;BME280;43484;43.608;1.458;2023-06-19T07:26:33;99314.84;;;23.05;100.00
49723;BME280;43484;43.608;1.458;2023-06-19T07:29:00;99287.00;;;23.04;100.00
49723;BME280;43484;43.608;1.458;2023-06-19T07:31:27;99274.69;;;23.08;100.00
49723;BME280;43484;43.608;1.458;2023-06-19T07:33:53;99278.06;;;23.11;100.00
49723;BME280;43484;43.608;1.458;2023-06-19T07:36:20;99260.03;;;23.04;100.00
49723;BME280;43484;43.608;1.458;2023-06-19T07:38:46;99233.94;;;23.02;100.00
49723;BME280;43484;43.608;1.458;2023-06-19T07:41:13;99202.72;;;22.98;100.00
49723;BME280;43484;43.608;1.458;2023-06-19T07:43:40;99192.31;;;22.96;100.00
49723;BME280;43484;43.608;1.458;2023-06-19T07:46:06;99183.53;;;22.99;100.00
49723;BME280;43484;43.608;1.458;2023-06-19T07:48:33;99162.69;;;22.97;100.00
49723;BME280;43484;43.608;1.458;2023-06-19T07:51:00;99163.47;;;22.99;100.00
49723;BME280;43484;43.608;1.458;2023-06-19T07:53:26;99182.16;;;23.15;100.00
49723;BME280;43484;43.608;1.458;2023-06-19T07:55:53;99186.47;;;23.43;100.00
49723;BME280;43484;43.608;1.458;2023-06-19T07:58:20;99210.91;;;23.69;100.00
49723;BME280;43484;43.608;1.458;2023-06-19T08:00:46;99240.53;;;23.95;100.00
49723;BME280;43484;43.608;1.458;2023-06-19T08:03:13;99276.22;;;23.98;100.00
49723;BME280;43484;43.608;1.458;2023-06-19T08:05:40;99282.22;;;24.01;100.00
49723;BME280;43484;43.608;1.458;2023-06-19T08:08:07;99308.50;;;23.97;100.00
49723;BME280;43484;43.608;1.458;2023-06-19T08:10:33;99320.47;;;24.05;100.00
49723;BME280;43484;43.608;1.458;2023-06-19T08:13:00;99329.88;;;24.11;100.00
49723;BME280;43484;43.608;1.458;2023-06-19T08:15:26;99326.59;;;24.30;100.00
49723;BME280;43484;43.608;1.458;2023-06-19T08:17:53;99369.47;;;24.52;100.00
49723;BME280;43484;43.608;1.458;2023-06-19T08:20:21;99404.88;;;24.64;100.00
49723;BME280;43484;43.608;1.458;2023-06-19T08:22:48;99422.91;;;24.47;100.00
49723;BME280;43484;43.608;1.458;2023-06-19T08:25:15;99440.19;;;24.52;100.00
49723;BME280;43484;43.608;1.458;2023-06-19T08:27:41;99448.00;;;24.54;100.00
49723;BME280;43484;43.608;1.458;2023-06-19T08:30:08;99440.63;;;24.65;100.00
49723;BME280;43484;43.608;1.458;2023-06-19T08:32:35;99433.03;;;24.84;100.00
49723;BME280;43484;43.608;1.458;2023-06-19T08:35:02;99457.75;;;25.01;100.00
49723;BME280;43484;43.608;1.458;2023-06-19T08:37:29;99465.91;;;24.92;100.00
49723;BME280;43484;43.608;1.458;2023-06-19T08:39:56;99454.69;;;24.62;100.00
49723;BME280;43484;43.608;1.458;2023-06-19T08:42:23;99426.38;;;24.47;100.00
49723;BME280;43484;43.608;1.458;2023-06-19T08:44:49;99412.19;;;24.28;100.00
49723;BME280;43484;43.608;1.458;2023-06-19T08:47:16;99369.06;;;24.38;100.00
49723;BME280;43484;43.608;1.458;2023-06-19T08:49:43;99355.44;;;24.29;100.00
49723;BME280;43484;43.608;1.458;2023-06-19T08:52:10;99366.44;;;24.38;100.00
49723;BME280;43484;43.608;1.458;2023-06-19T08:54:36;99379.88;;;24.29;100.00
49723;BME280;43484;43.608;1.458;2023-06-19T08:57:10;99337.81;;;24.34;100.00
49723;BME280;43484;43.608;1.458;2023-06-19T08:59:39;99335.13;;;24.35;100.00
49723;BME280;43484;43.608;1.458;2023-06-19T09:02:06;99322.44;;;24.49;100.00
49723;BME280;43484;43.608;1.458;2023-06-19T09:04:33;99334.00;;;24.68;100.00
49723;BME280;43484;43.608;1.458;2023-06-19T09:07:02;99335.94;;;24.62;100.00
49723;BME280;43484;43.608;1.458;2023-06-19T09:09:29;99329.13;;;24.58;100.00
49723;BME280;43484;43.608;1.458;2023-06-19T09:12:08;99318.78;;;24.53;100.00
49723;BME280;43484;43.608;1.458;2023-06-19T09:14:43;99306.63;;;24.28;100.00
49723;BME280;43484;43.608;1.458;2023-06-19T09:17:12;99288.94;;;24.34;100.00
49723;BME280;43484;43.608;1.458;2023-06-19T09:19:48;99270.38;;;24.40;100.00
49723;BME280;43484;43.608;1.458;2023-06-19T09:22:16;99252.09;;;24.39;100.00
49723;BME280;43484;43.608;1.458;2023-06-19T09:24:45;99235.88;;;24.29;100.00
49723;BME280;43484;43.608;1.458;2023-06-19T09:27:19;99204.56;;;24.26;100.00
49723;BME280;43484;43.608;1.458;2023-06-19T09:29:49;99207.44;;;24.19;100.00
49723;BME280;43484;43.608;1.458;2023-06-19T09:32:24;99184.91;;;24.15;100.00
49723;BME280;43484;43.608;1.458;2023-06-19T09:34:54;99167.72;;;24.08;100.00
49723;BME280;43484;43.608;1.458;2023-06-19T09:37:28;99162.63;;;24.28;100.00
49723;BME280;43484;43.608;1.458;2023-06-19T09:39:58;99190.63;;;24.26;100.00
49723;BME280;43484;43.608;1.458;2023-06-19T09:42:29;99224.41;;;24.32;100.00
49723;BME280;43484;43.608;1.458;2023-06-19T09:45:11;99230.91;;;24.45;100.00
49723;BME280;43484;43.608;1.458;2023-06-19T09:47:45;99239.06;;;24.37;100.00
49723;BME280;43484;43.608;1.458;2023-06-19T09:50:16;99218.88;;;24.41;100.00
49723;BME280;43484;43.608;1.458;2023-06-19T09:52:44;99226.78;;;24.39;100.00
49723;BME280;43484;43.608;1.458;2023-06-19T09:55:12;99239.25;;;24.56;100.00
49723;BME280;43484;43.608;1.458;2023-06-19T09:57:41;99234.38;;;24.70;100.00
49723;BME280;43484;43.608;1.458;2023-06-19T10:00:10;99256.38;;;24.89;100.00
49723;BME280;43484;43.608;1.458;2023-06-19T10:02:42;99266.69;;;24.94;100.00
49723;BME280;43484;43.608;1.458;2023-06-19T10:05:10;99283.03;;;25.00;100.00
49723;BME280;43484;43.608;1.458;2023-06-19T10:07:43;99291.63;;;25.04;100.00
49723;BME280;43484;43.608;1.458;2023-06-19T10:10:12;99298.19;;;25.15;100.00
49723;BME280;43484;43.608;1.458;2023-06-19T10:12:48;99302.81;;;25.09;100.00
49723;BME280;43484;43.608;1.458;2023-06-19T10:15:20;99298.31;;;25.12;100.00
49723;BME280;43484;43.608;1.458;2023-06-19T10:17:52;99304.97;;;25.21;100.00
49723;BME280;43484;43.608;1.458;2023-06-19T10:23:17;99315.56;;;25.18;100.00
49723;BME280;43484;43.608;1.458;2023-06-19T10:25:48;99303.22;;;25.21;100.00
49723;BME280;43484;43.608;1.458;2023-06-19T10:28:32;99279.50;;;25.01;100.00
49723;BME280;43484;43.608;1.458;2023-06-19T10:31:01;99284.88;;;24.98;100.00
49723;BME280;43484;43.608;1.458;2023-06-19T10:33:30;99303.16;;;25.00;100.00
49723;BME280;43484;43.608;1.458;2023-06-19T10:36:20;99302.94;;;24.83;100.00
49723;BME280;43484;43.608;1.458;2023-06-19T10:38:49;99310.22;;;24.74;100.00
49723;BME280;43484;43.608;1.458;2023-06-19T10:41:20;99309.25;;;25.00;100.00
49723;BME280;43484;43.608;1.458;2023-06-19T10:44:03;99323.78;;;25.09;100.00
49723;BME280;43484;43.608;1.458;2023-06-19T10:46:37;99329.19;;;25.04;100.00
49723;BME280;43484;43.608;1.458;2023-06-19T10:49:06;99324.63;;;25.09;100.00
49723;BME280;43484;43.608;1.458;2023-06-19T10:51:35;99332.00;;;25.23;100.00
49723;BME280;43484;43.608;1.458;2023-06-19T10:54:02;99329.16;;;25.52;100.00
49723;BME280;43484;43.608;1.458;2023-06-19T10:56:29;99336.34;;;25.68;100.00
49723;BME280;43484;43.608;1.458;2023-06-19T10:58:59;99347.94;;;25.84;100.00
49723;BME280;43484;43.608;1.458;2023-06-19T11:01:39;99352.53;;;25.79;100.00
49723;BME280;43484;43.608;1.458;2023-06-19T11:04:07;99358.66;;;26.02;100.00
49723;BME280;43484;43.608;1.458;2023-06-19T11:06:35;99356.38;;;26.14;100.00
49723;BME280;43484;43.608;1.458;2023-06-19T11:09:03;99356.56;;;26.10;100.00
49723;BME280;43484;43.608;1.458;2023-06-19T11:11:49;99358.09;;;26.15;100.00
49723;BME280;43484;43.608;1.458;2023-06-19T11:14:16;99349.88;;;26.23;100.00
49723;BME280;43484;43.608;1.458;2023-06-19T11:16:45;99343.22;;;26.16;100.00
49723;BME280;43484;43.608;1.458;2023-06-19T11:19:20;99346.75;;;26.35;100.00
49723;BME280;43484;43.608;1.458;2023-06-19T11:21:49;99331.00;;;26.35;100.00
49723;BME280;43484;43.608;1.458;2023-06-19T11:24:17;99331.34;;;26.47;100.00
49723;BME280;43484;43.608;1.458;2023-06-19T11:26:46;99320.09;;;26.44;100.00
49723;BME280;43484;43.608;1.458;2023-06-19T11:29:18;99318.00;;;26.32;100.00
49723;BME280;43484;43.608;1.458;2023-06-19T11:31:45;99307.13;;;26.19;100.00
49723;BME280;43484;43.608;1.458;2023-06-19T11:34:14;99307.28;;;26.16;100.00
49723;BME280;43484;43.608;1.458;2023-06-19T11:36:42;99304.72;;;26.15;100.00
49723;BME280;43484;43.608;1.458;2023-06-19T11:39:14;99292.66;;;26.31;100.00
49723;BME280;43484;43.608;1.458;2023-06-19T11:41:43;99284.72;;;26.32;100.00
49723;BME280;43484;43.608;1.458;2023-06-19T11:44:10;99282.91;;;26.33;100.00
49723;BME280;43484;43.608;1.458;2023-06-19T11:46:38;99280.44;;;26.30;100.00
49723;BME280;43484;43.608;1.458;2023-06-19T11:49:15;99288.38;;;26.48;100.00
49723;BME280;43484;43.608;1.458;2023-06-19T11:51:45;99274.72;;;26.40;100.00
49723;BME280;43484;43.608;1.458;2023-06-19T11:54:13;99260.34;;;26.29;100.00
49723;BME280;43484;43.608;1.458;2023-06-19T11:56:44;99261.38;;;26.05;100.00
49723;BME280;43484;43.608;1.458;2023-06-19T11:59:11;99256.59;;;26.14;100.00
49723;BME280;43484;43.608;1.458;2023-06-19T12:01:37;99250.22;;;26.20;100.00
49723;BME280;43484;43.608;1.458;2023-06-19T12:04:06;99237.91;;;26.22;100.00
49723;BME280;43484;43.608;1.458;2023-06-19T12:06:33;99239.28;;;26.30;100.00
49723;BME280;43484;43.608;1.458;2023-06-19T12:09:02;99246.69;;;26.41;100.00
49723;BME280;43484;43.608;1.458;2023-06-19T12:11:31;99240.22;;;26.48;100.00
49723;BME280;43484;43.608;1.458;2023-06-19T12:13:57;99246.88;;;26.36;100.00
49723;BME280;43484;43.608;1.458;2023-06-19T12:16:24;99259.41;;;26.30;100.00
49723;BME280;43484;43.608;1.458;2023-06-19T12:18:53;99267.63;;;26.42;100.00
49723;BME280;43484;43.608;1.458;2023-06-19T12:21:19;99288.59;;;26.24;100.00
49723;BME280;43484;43.608;1.458;2023-06-19T12:24:01;99291.72;;;26.32;100.00
49723;BME280;43484;43.608;1.458;2023-06-19T12:26:28;99297.63;;;26.17;100.00
49723;BME280;43484;43.608;1.458;2023-06-19T12:28:55;99305.31;;;26.21;100.00
49723;BME280;43484;43.608;1.458;2023-06-19T12:31:21;99303.91;;;26.13;100.00
49723;BME280;43484;43.608;1.458;2023-06-19T12:33:48;99312.41;;;25.97;100.00
49723;BME280;43484;43.608;1.458;2023-06-19T12:36:15;99307.28;;;25.94;100.00
49723;BME280;43484;43.608;1.458;2023-06-19T12:38:41;99302.78;;;25.76;100.00
49723;BME280;43484;43.608;1.458;2023-06-19T12:41:08;99303.25;;;25.86;100.00
49723;BME280;43484;43.608;1.458;2023-06-19T12:43:35;99301.03;;;25.77;100.00
49723;BME280;43484;43.608;1.458;2023-06-19T12:46:02;99298.50;;;25.74;100.00
49723;BME280;43484;43.608;1.458;2023-06-19T12:48:28;99303.75;;;25.74;100.00
49723;BME280;43484;43.608;1.458;2023-06-19T12:50:56;99295.22;;;25.69;100.00
49723;BME280;43484;43.608;1.458;2023-06-19T12:53:22;99285.59;;;25.48;100.00
49723;BME280;43484;43.608;1.458;2023-06-19T12:55:53;99279.72;;;25.41;100.00
49723;BME280;43484;43.608;1.458;2023-06-19T12:58:28;99259.81;;;25.36;100.00